createdAt,value
2023-05-21T06:05:47.941Z,20.21
2023-05-21T06:08:52.191Z,20.31
2023-05-21T06:11:55.232Z,20.24
2023-05-21T06:14:58.511Z,20.79
2023-05-21T06:18:01.354Z,21.33
2023-05-21T06:21:04.781Z,21.58
2023-05-21T06:24:08.257Z,21.60
2023-05-21T06:27:11.918Z,21.45
2023-05-21T06:30:14.715Z,21.23
2023-05-21T06:33:17.912Z,20.98
2023-05-21T06:36:21.544Z,21.86
2023-05-21T06:39:25.063Z,22.39
2023-05-21T06:42:27.844Z,22.38
2023-05-21T06:45:32.142Z,22.47
2023-05-21T06:48:35.361Z,22.18
2023-05-21T06:51:38.300Z,22.87
2023-05-21T06:54:41.210Z,22.79
2023-05-21T06:57:44.203Z,22.87
2023-05-21T07:00:47.423Z,22.98
2023-05-21T07:03:50.737Z,23.50
2023-05-21T07:06:54.528Z,24.15
2023-05-21T07:09:58.689Z,24.07
2023-05-21T07:13:01.457Z,24.08
2023-05-21T07:16:05.857Z,23.75
2023-05-21T07:19:10.286Z,23.37
2023-05-21T07:22:13.456Z,23.62
2023-05-21T07:25:16.688Z,24.05
2023-05-21T07:28:20.661Z,24.12
2023-05-21T07:31:23.539Z,24.00
2023-05-21T07:34:26.946Z,24.80
2023-05-21T07:37:30.446Z,24.38
2023-05-21T07:40:33.596Z,23.93
2023-05-21T07:43:37.172Z,24.35
2023-05-21T07:46:40.627Z,23.81
2023-05-21T07:49:43.826Z,23.68
2023-05-21T07:52:46.935Z,23.88
2023-05-21T07:55:49.825Z,23.53
2023-05-21T07:58:53.969Z,24.00
2023-05-21T08:01:59.823Z,23.80
2023-05-21T08:05:03.085Z,23.73
2023-05-21T08:08:06.002Z,23.86
2023-05-21T08:11:10.016Z,23.85
2023-05-21T08:14:13.006Z,23.58
2023-05-21T08:17:16.728Z,23.70
2023-05-21T08:20:20.601Z,23.71
2023-05-21T08:23:27.257Z,24.22
2023-05-21T08:26:33.121Z,24.33
2023-05-21T08:29:37.079Z,24.16
2023-05-21T08:32:42.754Z,24.12
2023-05-21T08:35:47.805Z,24.04
2023-05-21T08:38:51.300Z,24.11
2023-05-21T08:42:38.857Z,24.10
2023-05-21T08:45:44.689Z,23.90
2023-05-21T08:48:48.146Z,23.45
2023-05-21T08:51:52.111Z,23.56
2023-05-21T08:54:56.904Z,23.94
2023-05-21T08:58:00.357Z,24.04
2023-05-21T09:01:04.936Z,24.31
2023-05-21T09:07:29.110Z,24.51
2023-05-21T09:10:49.313Z,24.99
2023-05-21T09:13:54.205Z,24.42
2023-05-21T09:16:58.200Z,24.28
2023-05-21T09:20:12.613Z,24.57
2023-05-21T09:23:17.967Z,23.89
2023-05-21T09:26:22.325Z,24.79
2023-05-21T09:29:26.509Z,24.63
2023-05-21T09:32:30.568Z,24.19
2023-05-21T09:35:34.240Z,24.70
2023-05-21T09:38:38.750Z,24.95
2023-05-21T09:41:42.782Z,24.79
2023-05-21T09:44:45.842Z,24.84
2023-05-21T09:47:51.455Z,24.54
2023-05-21T09:50:55.885Z,24.39
2023-05-21T09:53:58.946Z,24.37
2023-05-21T09:57:03.270Z,25.21
2023-05-21T10:00:08.996Z,24.92
2023-05-21T10:03:17.204Z,25.19
2023-05-21T10:06:21.296Z,25.18
2023-05-21T10:09:24.636Z,24.85
2023-05-21T10:12:30.427Z,25.22
2023-05-21T10:15:39.179Z,24.95
2023-05-21T10:18:42.544Z,25.03
2023-05-21T10:21:50.390Z,24.62
2023-05-21T10:24:55.483Z,25.28
2023-05-21T10:27:58.440Z,25.49
2023-05-21T10:31:01.727Z,25.61
2023-05-21T10:34:06.507Z,25.45
2023-05-21T10:37:10.460Z,25.73
2023-05-21T10:40:13.742Z,25.50
2023-05-21T10:43:42.436Z,25.19
2023-05-21T10:46:57.319Z,25.30
2023-05-21T10:50:22.133Z,25.36
2023-05-21T10:53:24.672Z,25.20
2023-05-21T10:56:49.051Z,25.42
2023-05-21T10:59:52.245Z,25.58
2023-05-21T11:02:55.658Z,25.64
2023-05-21T11:05:58.508Z,25.19
2023-05-21T11:09:11.478Z,25.61
2023-05-21T11:12:15.293Z,25.28
2023-05-21T11:15:18.283Z,25.60
2023-05-21T11:18:21.049Z,24.87
2023-05-21T11:21:28.326Z,25.38
2023-05-21T11:24:33.015Z,25.28
2023-05-21T11:27:44.908Z,24.91
2023-05-21T11:31:26.411Z,25.52
2023-05-21T11:34:47.124Z,25.76
2023-05-21T11:37:54.138Z,25.45
2023-05-21T11:41:03.205Z,25.76
2023-05-21T11:44:09.148Z,25.45
2023-05-21T11:47:15.071Z,25.18
2023-05-21T11:50:18.348Z,25.45
2023-05-21T11:53:21.361Z,25.66
2023-05-21T11:56:24.536Z,25.83
2023-05-21T11:59:27.662Z,26.09
2023-05-21T12:02:34.188Z,26.04
2023-05-21T12:05:47.283Z,26.09
2023-05-21T12:08:58.153Z,25.93
2023-05-21T12:12:02.219Z,25.34
2023-05-21T12:15:05.579Z,25.57
2023-05-21T12:18:08.620Z,25.75
2023-05-21T12:21:12.619Z,25.70
2023-05-21T12:24:16.307Z,25.67
2023-05-21T12:27:19.489Z,25.72
2023-05-21T12:30:22.438Z,26.00
2023-05-21T12:33:26.113Z,26.28
2023-05-21T12:36:34.202Z,26.09
2023-05-21T12:39:43.291Z,25.97
2023-05-21T12:42:46.554Z,26.12
2023-05-21T12:45:49.369Z,26.11
2023-05-21T12:48:56.072Z,26.16
2023-05-21T12:51:58.747Z,26.25
2023-05-21T12:55:02.516Z,26.01
2023-05-21T12:58:08.854Z,26.42
2023-05-21T13:01:12.528Z,26.06
2023-05-21T13:04:16.714Z,25.79
2023-05-21T13:07:19.839Z,25.78
2023-05-21T13:10:22.606Z,26.42
2023-05-21T13:13:25.564Z,26.49
2023-05-21T13:16:28.683Z,26.52
2023-05-21T13:19:31.796Z,26.22
2023-05-21T13:22:39.194Z,26.13
2023-05-21T13:25:42.275Z,25.84
2023-05-21T13:28:45.312Z,25.88
2023-05-21T13:31:48.312Z,26.19
2023-05-21T13:34:50.976Z,26.03
2023-05-21T13:37:54.391Z,26.09
2023-05-21T13:40:57.159Z,25.90
2023-05-21T13:44:00.342Z,25.97
2023-05-21T13:47:03.937Z,26.41
2023-05-21T13:50:08.509Z,26.24
2023-05-21T13:53:11.178Z,26.26
2023-05-21T13:56:14.172Z,26.30
2023-05-21T13:59:17.625Z,26.09
2023-05-21T14:02:20.794Z,26.12
2023-05-21T14:05:23.878Z,26.04
2023-05-21T14:08:28.982Z,26.14
2023-05-21T14:11:35.173Z,26.21
2023-05-21T14:14:37.968Z,26.25
2023-05-21T14:17:42.526Z,26.24
2023-05-21T14:20:45.362Z,26.26
2023-05-21T14:23:48.923Z,26.22
2023-05-21T14:26:51.546Z,25.84
2023-05-21T14:29:54.591Z,25.81
2023-05-21T14:32:58.116Z,25.78
2023-05-21T14:36:01.576Z,25.49
2023-05-21T14:39:04.415Z,25.32
2023-05-21T14:42:07.480Z,25.70
2023-05-21T14:45:21.206Z,25.91
2023-05-21T14:48:24.491Z,25.97
2023-05-21T14:51:27.239Z,26.12
2023-05-21T14:54:30.207Z,26.23
2023-05-21T14:57:32.916Z,26.25
2023-05-21T15:00:36.976Z,26.25
2023-05-21T15:03:39.777Z,26.01
2023-05-21T15:06:42.793Z,26.15
2023-05-21T15:09:45.538Z,25.96
2023-05-21T15:12:48.580Z,26.01
2023-05-21T15:15:51.301Z,25.96
2023-05-21T15:18:54.411Z,25.92
2023-05-21T15:21:57.181Z,25.69
2023-05-21T15:25:00.703Z,25.49
2023-05-21T15:28:03.530Z,25.35
2023-05-21T15:31:06.792Z,25.35
2023-05-21T15:34:09.558Z,25.62
2023-05-21T15:37:15.448Z,25.62
2023-05-21T15:40:18.535Z,25.60
2023-05-21T15:43:21.534Z,25.62
2023-05-21T16:08:15.005Z,25.40
2023-05-21T16:11:18.076Z,25.14
2023-05-21T16:14:20.810Z,24.74
2023-05-21T16:17:24.163Z,25.20
2023-05-21T16:20:26.967Z,25.33
2023-05-21T16:23:30.072Z,25.13
2023-05-21T16:26:32.789Z,25.33
2023-05-21T16:29:39.347Z,25.21
2023-05-21T16:32:43.697Z,25.22
2023-05-21T16:35:46.838Z,25.06
2023-05-21T16:38:49.527Z,25.03
2023-05-21T16:41:53.988Z,24.98
2023-05-21T16:44:56.696Z,24.73
2023-05-21T16:47:59.639Z,24.56
2023-05-21T16:51:02.595Z,24.49
2023-05-21T16:54:06.422Z,24.32
2023-05-21T16:57:09.554Z,24.37
2023-05-21T17:00:13.097Z,24.20
2023-05-21T17:03:16.134Z,24.14
2023-05-21T17:06:19.234Z,24.06
2023-05-21T17:09:21.913Z,23.83
2023-05-21T17:12:24.924Z,23.86
2023-05-21T17:15:27.708Z,23.66
2023-05-21T17:18:31.452Z,23.61
2023-05-21T17:21:34.217Z,23.67
2023-05-21T17:24:37.421Z,23.63
2023-05-21T17:27:40.109Z,23.52
2023-05-21T17:30:43.058Z,23.51
2023-05-21T17:33:46.147Z,23.34
2023-05-21T17:36:49.076Z,23.23
2023-05-21T17:39:51.758Z,23.19
2023-05-21T17:42:54.866Z,23.07
2023-05-21T17:45:58.005Z,23.05
2023-05-21T17:49:01.114Z,22.98
2023-05-21T17:52:04.643Z,22.71
2023-05-21T17:55:08.182Z,22.63
2023-05-21T17:58:10.962Z,22.58
2023-05-21T18:01:13.950Z,22.40
2023-05-21T18:04:17.248Z,22.05
